Time;durP1;ratioP1;P1;durP2;ratioP2;P2;SDS_P1;SDS_P2;PMS_P1;PMS_P2;Temp;Humidity;BMP_temperature;BMP_pressure;BME280_temperature;BME280_humidity;BME280_pressure;Samples;Min_cycle;Max_cycle;Signal;HPM_P1;HPM_P2
2022/06/11 00:01:40;;;;;;;3.50;1.50;;;23.10;53.50;22.00;101615.00;;;;5017285;28;20126;-73
2022/06/11 00:04:33;;;;;;;2.17;1.17;;;23.10;53.50;22.00;101625.00;;;;5043315;28;20091;-73
2022/06/11 00:07:22;;;;;;;2.00;1.55;;;23.10;53.50;22.00;101626.00;;;;5048116;28;20072;-73
2022/06/11 00:10:09;;;;;;;2.30;1.35;;;23.20;53.60;22.00;101630.00;;;;5043574;28;20032;-73
2022/06/11 00:12:55;;;;;;;2.15;1.20;;;23.10;53.60;22.00;101634.00;;;;5065007;28;20486;-72
2022/06/11 00:15:42;;;;;;;2.55;1.27;;;23.10;53.60;22.00;101632.00;;;;5046171;28;20063;-73
2022/06/11 00:18:28;;;;;;;3.10;1.42;;;23.10;53.60;22.00;101634.00;;;;5052896;28;20103;-72
2022/06/11 00:21:14;;;;;;;1.90;1.30;;;23.10;53.60;22.00;101635.00;;;;5043646;28;20033;-73
2022/06/11 00:24:01;;;;;;;2.88;1.48;;;23.20;53.70;22.00;101632.00;;;;5050582;28;20165;-72
2022/06/11 00:26:47;;;;;;;2.67;1.30;;;23.10;53.60;22.00;101639.00;;;;5048402;28;20052;-73
2022/06/11 00:29:34;;;;;;;3.45;1.45;;;23.10;53.70;22.00;101635.00;;;;5055869;28;20479;-72
2022/06/11 00:32:21;;;;;;;2.75;1.50;;;23.10;53.80;22.00;101633.00;;;;5046449;28;20471;-72
2022/06/11 00:35:08;;;;;;;2.13;1.38;;;23.10;53.70;22.00;101624.00;;;;5054136;28;20405;-72
2022/06/11 00:37:54;;;;;;;1.73;1.33;;;23.10;53.70;22.00;101627.00;;;;5052397;28;20119;-73
2022/06/11 00:40:42;;;;;;;2.70;1.30;;;23.10;53.70;22.00;101629.00;;;;5046393;28;20095;-73
2022/06/11 00:43:28;;;;;;;1.65;1.23;;;23.20;53.70;22.00;101623.00;;;;5048132;28;20048;-72
2022/06/11 00:46:41;;;;;;;2.03;1.63;;;23.20;53.70;22.00;101626.00;;;;5043715;28;20453;-72
2022/06/11 00:49:32;;;;;;;3.08;1.25;;;23.10;53.60;22.00;101619.00;;;;5055088;28;20041;-73
2022/06/11 00:52:41;;;;;;;3.63;1.40;;;23.10;53.60;22.00;101616.00;;;;5061109;28;20120;-73
2022/06/11 00:55:32;;;;;;;3.80;1.52;;;23.10;53.60;22.00;101609.00;;;;5037752;28;20121;-72
2022/06/11 00:58:25;;;;;;;1.90;1.23;;;23.20;53.60;22.00;101612.00;;;;5042670;28;20546;-72
2022/06/11 01:01:13;;;;;;;3.63;1.40;;;23.10;53.60;22.00;101615.00;;;;5032393;28;20479;-73
2022/06/11 01:04:00;;;;;;;2.92;1.30;;;23.20;53.60;22.00;101615.00;;;;5028015;28;20074;-73
2022/06/11 01:06:51;;;;;;;;;;;23.20;53.60;22.00;101615.00;;;;5042932;28;20052;-73
2022/06/11 01:10:25;;;;;;;2.45;1.17;;;23.20;53.70;22.00;101614.00;;;;5050357;28;20267;-72
2022/06/11 01:13:59;;;;;;;2.95;1.40;;;23.20;53.50;22.00;101614.00;;;;5032812;28;20445;-72
2022/06/11 01:17:12;;;;;;;2.08;1.33;;;23.20;53.50;22.00;101614.00;;;;5044560;28;20045;-71
2022/06/11 01:20:17;;;;;;;3.10;1.52;;;23.20;53.50;22.00;101612.00;;;;5058171;28;20048;-73
2022/06/11 01:23:52;;;;;;;1.85;1.40;;;23.10;53.60;22.00;101617.00;;;;5047465;28;20106;-72
2022/06/11 01:27:16;;;;;;;3.05;1.35;;;23.10;53.60;22.00;101615.00;;;;5049746;28;20047;-72
2022/06/11 01:30:29;;;;;;;4.07;1.70;;;23.10;53.60;22.00;101605.00;;;;5041334;28;20065;-73
2022/06/11 01:33:28;;;;;;;2.33;1.27;;;23.10;53.60;22.00;101615.00;;;;5033213;28;20040;-72
2022/06/11 01:36:37;;;;;;;2.88;1.50;;;23.10;53.70;22.00;101616.00;;;;5033433;28;20029;-73
2022/06/11 01:39:28;;;;;;;;;;;23.10;53.70;22.00;101615.00;;;;5042517;28;20037;-73
2022/06/11 01:42:26;;;;;;;2.20;1.23;;;23.10;53.70;22.00;101618.00;;;;5049075;28;19913;-73
2022/06/11 01:45:20;;;;;;;;;;;23.10;53.60;21.90;101608.00;;;;5037581;28;20080;-73
2022/06/11 01:48:13;;;;;;;1.33;1.20;;;23.10;53.60;21.90;101616.00;;;;5036482;28;19921;-72
2022/06/11 01:51:11;;;;;;;1.75;1.35;;;23.10;53.50;22.00;101612.00;;;;5038254;28;20036;-72
2022/06/11 01:54:38;;;;;;;1.85;1.40;;;23.10;53.60;22.00;101614.00;;;;5051356;28;20048;-73
2022/06/11 01:57:47;;;;;;;2.88;1.15;;;23.10;53.60;22.00;101607.00;;;;5049820;28;20048;-72
2022/06/11 02:00:38;;;;;;;1.92;1.33;;;23.10;53.70;22.00;101599.00;;;;5049867;28;20033;-72
2022/06/11 02:03:44;;;;;;;2.03;1.63;;;23.10;53.70;22.00;101603.00;;;;5031584;28;20048;-72
2022/06/11 02:06:52;;;;;;;1.98;1.38;;;23.10;53.80;22.00;101603.00;;;;5045995;28;20154;-73
2022/06/11 02:10:07;;;;;;;1.57;1.43;;;23.10;53.80;22.00;101606.00;;;;5042163;28;20101;-73
2022/06/11 02:13:32;;;;;;;3.45;1.35;;;23.10;53.80;22.00;101602.00;;;;5052893;28;20660;-73
2022/06/11 02:16:28;;;;;;;2.33;1.42;;;23.10;53.80;22.00;101607.00;;;;5066975;28;20102;-73
2022/06/11 02:19:36;;;;;;;4.72;1.30;;;23.10;53.80;22.00;101609.00;;;;5054296;28;20077;-72
2022/06/11 02:22:31;;;;;;;2.20;1.37;;;23.10;53.80;22.00;101609.00;;;;5051151;28;20047;-72
2022/06/11 02:25:29;;;;;;;2.40;1.75;;;23.10;53.80;22.00;101614.00;;;;5047398;28;20577;-73
2022/06/11 02:28:21;;;;;;;1.80;1.30;;;23.10;53.80;22.00;101612.00;;;;5064369;28;20268;-72
2022/06/11 02:31:11;;;;;;;3.45;1.55;;;23.10;53.80;22.00;101617.00;;;;5048208;28;20115;-72
2022/06/11 02:34:01;;;;;;;3.75;1.65;;;23.10;53.80;22.00;101618.00;;;;5042316;28;20052;-73
2022/06/11 02:37:05;;;;;;;3.35;1.60;;;23.10;53.80;22.00;101617.00;;;;5041972;28;20033;-72
2022/06/11 02:39:53;;;;;;;3.08;1.90;;;23.10;53.90;22.00;101622.00;;;;5038783;28;20162;-73
2022/06/11 02:42:39;;;;;;;4.55;1.85;;;23.10;53.90;22.00;101608.00;;;;5048706;28;20044;-73
2022/06/11 02:45:25;;;;;;;2.67;1.60;;;23.10;54.00;22.00;101625.00;;;;5045685;28;20135;-73
2022/06/11 02:48:12;;;;;;;3.63;1.60;;;23.10;54.00;22.00;101625.00;;;;5045547;28;20524;-73
2022/06/11 02:50:58;;;;;;;6.00;2.65;;;23.10;54.00;22.00;101618.00;;;;5031275;28;20079;-73
2022/06/11 02:53:44;;;;;;;6.15;2.47;;;23.10;54.00;22.00;101631.00;;;;5042062;28;20041;-72
2022/06/11 02:56:30;;;;;;;4.35;2.17;;;23.10;54.20;22.00;101637.00;;;;5061177;28;20364;-73
2022/06/11 02:59:16;;;;;;;3.30;2.13;;;23.20;54.20;22.00;101636.00;;;;5046358;28;20131;-73
2022/06/11 03:02:03;;;;;;;6.20;2.00;;;23.10;54.20;22.00;101635.00;;;;5052220;28;20086;-73
2022/06/11 03:04:49;;;;;;;5.32;2.10;;;23.10;54.20;22.00;101638.00;;;;5055746;28;20049;-73
2022/06/11 03:07:35;;;;;;;3.30;2.17;;;23.10;54.20;22.00;101639.00;;;;5054073;28;20041;-73
2022/06/11 03:10:22;;;;;;;3.03;1.90;;;23.10;54.10;22.00;101640.00;;;;5041085;28;20041;-73
2022/06/11 03:13:08;;;;;;;2.50;1.75;;;23.10;54.10;22.00;101646.00;;;;5045883;28;20497;-73
2022/06/11 03:15:55;;;;;;;3.00;2.15;;;23.10;54.10;22.00;101642.00;;;;5054823;28;20047;-73
2022/06/11 03:18:41;;;;;;;3.45;1.98;;;23.10;54.10;22.00;101647.00;;;;5043120;28;20073;-73
2022/06/11 03:21:27;;;;;;;3.53;2.25;;;23.10;54.20;22.00;101648.00;;;;5040965;28;20044;-73
2022/06/11 03:24:13;;;;;;;5.50;2.58;;;23.10;54.20;22.00;101652.00;;;;5049557;28;20056;-73
2022/06/11 03:26:59;;;;;;;4.72;2.72;;;23.10;54.30;22.00;101655.00;;;;5046686;28;20040;-73
2022/06/11 03:29:45;;;;;;;4.57;2.70;;;23.10;54.30;22.00;101661.00;;;;5046523;28;20045;-73
2022/06/11 03:32:31;;;;;;;5.47;2.45;;;23.10;54.30;22.00;101663.00;;;;5061728;28;20037;-73
2022/06/11 03:35:18;;;;;;;4.63;2.92;;;23.10;54.30;22.00;101657.00;;;;5056290;28;20438;-73
2022/06/11 03:38:07;;;;;;;5.43;2.75;;;23.10;54.30;22.00;101663.00;;;;5055387;28;20127;-73
2022/06/11 03:40:53;;;;;;;3.60;2.25;;;23.10;54.30;22.00;101660.00;;;;5040987;28;20060;-73
2022/06/11 03:43:39;;;;;;;4.20;2.60;;;23.00;54.20;22.00;101661.00;;;;5052004;28;20175;-73
2022/06/11 03:46:25;;;;;;;4.45;2.25;;;23.00;54.20;22.00;101662.00;;;;5049561;28;20048;-74
2022/06/11 03:49:11;;;;;;;3.88;2.15;;;23.10;54.20;22.00;101670.00;;;;5045453;28;20052;-73
2022/06/11 03:51:57;;;;;;;3.25;2.00;;;23.10;54.20;22.00;101671.00;;;;5047383;28;20049;-73
2022/06/11 03:54:44;;;;;;;3.20;2.20;;;23.10;54.20;22.00;101672.00;;;;5043904;28;20049;-73
2022/06/11 03:57:30;;;;;;;3.58;1.95;;;23.10;54.20;22.00;101671.00;;;;5049274;28;20425;-72
2022/06/11 04:03:25;;;;;;;6.07;2.47;;;23.10;54.20;22.00;101677.00;;;;5049821;28;20487;-73
2022/06/11 04:06:11;;;;;;;2.53;1.90;;;23.10;54.10;22.00;101682.00;;;;5030249;28;20048;-73
2022/06/11 04:08:58;;;;;;;3.88;1.95;;;23.10;54.10;22.00;101676.00;;;;5049352;28;20047;-73
2022/06/11 04:11:44;;;;;;;4.35;2.10;;;23.10;54.10;22.00;101675.00;;;;5050309;28;20596;-73
2022/06/11 04:14:30;;;;;;;3.33;2.38;;;23.10;54.10;22.00;101677.00;;;;5055254;28;20586;-73
2022/06/11 04:17:24;;;;;;;4.57;2.10;;;23.10;54.10;22.00;101682.00;;;;5047606;28;20577;-73
2022/06/11 04:20:12;;;;;;;4.07;2.10;;;23.10;54.10;22.00;101685.00;;;;5041031;28;20048;-73
2022/06/11 04:22:59;;;;;;;3.67;2.28;;;23.10;54.20;22.00;101684.00;;;;5057800;28;20068;-73
2022/06/11 04:25:45;;;;;;;6.60;2.80;;;23.10;54.10;22.00;101685.00;;;;5054421;28;20091;-73
2022/06/11 04:28:31;;;;;;;3.63;2.55;;;23.10;54.20;22.00;101686.00;;;;5045917;28;20048;-73
2022/06/11 04:31:18;;;;;;;3.95;2.38;;;23.10;54.20;22.00;101694.00;;;;5044566;28;20393;-73
2022/06/11 04:34:04;;;;;;;5.70;2.63;;;23.10;54.20;22.00;101692.00;;;;5053938;28;20462;-74
2022/06/11 04:36:50;;;;;;;3.05;2.20;;;23.10;54.20;22.00;101697.00;;;;5058787;28;20045;-73
2022/06/11 04:39:36;;;;;;;3.85;2.40;;;23.10;54.20;22.00;101698.00;;;;5043040;28;20055;-73
2022/06/11 04:42:22;;;;;;;6.93;3.15;;;23.00;54.10;22.00;101702.00;;;;5044370;28;20036;-73
2022/06/11 04:45:10;;;;;;;3.83;2.05;;;23.10;54.20;22.00;101700.00;;;;5057534;28;20123;-73
2022/06/11 04:47:56;;;;;;;3.13;2.10;;;23.10;54.20;22.00;101700.00;;;;5049277;28;20069;-73
2022/06/11 04:50:42;;;;;;;4.10;2.38;;;23.00;54.20;22.00;101696.00;;;;5056915;28;20041;-73
2022/06/11 04:53:28;;;;;;;5.93;2.13;;;23.00;54.20;22.00;101703.00;;;;5065587;28;20036;-73
2022/06/11 04:56:18;;;;;;;3.88;2.17;;;23.00;54.20;22.00;101702.00;;;;5042512;28;20041;-73
2022/06/11 04:59:04;;;;;;;8.70;2.95;;;23.00;54.20;22.00;101706.00;;;;5043788;28;20044;-73
2022/06/11 05:01:50;;;;;;;6.13;2.85;;;23.00;54.40;22.00;101708.00;;;;5033915;28;20128;-73
2022/06/11 05:04:36;;;;;;;9.23;3.30;;;23.00;54.50;22.00;101705.00;;;;5057340;28;20040;-73
2022/06/11 05:07:22;;;;;;;6.50;2.95;;;23.00;54.50;22.00;101707.00;;;;5043159;28;20037;-73
2022/06/11 05:10:09;;;;;;;7.38;2.75;;;23.00;54.40;22.00;101698.00;;;;5055361;28;20041;-73
2022/06/11 05:12:55;;;;;;;5.57;2.60;;;23.00;54.40;21.90;101699.00;;;;5049763;28;20394;-73
2022/06/11 05:15:50;;;;;;;6.43;2.53;;;23.10;54.40;22.00;101706.00;;;;5054465;28;20104;-73
2022/06/11 05:18:36;;;;;;;5.05;2.60;;;23.00;54.40;22.00;101709.00;;;;5035521;28;20095;-73
2022/06/11 05:21:22;;;;;;;5.70;2.60;;;23.00;54.40;22.00;101705.00;;;;5027484;28;20033;-73
2022/06/11 05:24:08;;;;;;;3.67;2.25;;;23.00;54.40;22.00;101698.00;;;;5043795;28;20051;-73
2022/06/11 05:27:03;;;;;;;5.57;2.47;;;23.00;54.40;22.00;101704.00;;;;5057236;28;20106;-73
2022/06/11 05:30:06;;;;;;;6.10;2.35;;;23.00;54.50;21.90;101709.00;;;;5029484;28;20041;-73
2022/06/11 05:32:53;;;;;;;5.03;2.33;;;23.00;54.40;21.90;101708.00;;;;5054249;28;20521;-73
2022/06/11 05:35:39;;;;;;;2.90;1.77;;;23.00;54.30;21.90;101708.00;;;;5053310;28;20507;-73
2022/06/11 05:38:27;;;;;;;3.25;1.85;;;23.00;54.30;21.90;101712.00;;;;5047625;28;20453;-73
2022/06/11 05:41:14;;;;;;;2.40;1.50;;;23.00;54.30;21.90;101705.00;;;;5040035;28;20045;-73
2022/06/11 05:44:01;;;;;;;3.55;1.73;;;22.90;54.20;21.90;101721.00;;;;5063482;28;20047;-73
2022/06/11 05:46:47;;;;;;;4.25;1.80;;;22.90;54.00;21.90;101707.00;;;;5040685;28;20135;-73
2022/06/11 05:49:37;;;;;;;4.57;1.63;;;23.00;54.00;21.90;101714.00;;;;5039351;28;20048;-73
2022/06/11 05:52:27;;;;;;;3.30;1.50;;;22.90;53.90;21.90;101715.00;;;;5046537;28;20029;-73
2022/06/11 05:55:19;;;;;;;2.90;1.40;;;22.90;53.90;21.90;101708.00;;;;5027907;28;20044;-74
2022/06/11 05:58:08;;;;;;;2.95;1.40;;;22.90;53.70;21.90;101712.00;;;;5046702;28;20040;-73
2022/06/11 06:00:55;;;;;;;3.65;1.70;;;22.90;53.50;21.80;101704.00;;;;5038424;28;20103;-73
2022/06/11 06:03:41;;;;;;;5.60;1.67;;;22.90;53.40;21.90;101708.00;;;;5040717;28;20096;-73
2022/06/11 06:06:27;;;;;;;2.67;1.10;;;22.90;53.60;21.80;101714.00;;;;5043398;28;20489;-73
2022/06/11 06:09:13;;;;;;;1.95;1.20;;;22.90;53.20;21.80;101713.00;;;;5048157;28;20041;-74
2022/06/11 06:11:59;;;;;;;5.63;1.80;;;22.90;53.30;21.90;101716.00;;;;5038947;28;20037;-73
2022/06/11 06:14:46;;;;;;;4.15;1.60;;;22.90;53.10;21.80;101728.00;;;;5044102;28;20180;-73
2022/06/11 06:17:32;;;;;;;4.82;1.40;;;22.90;52.90;21.80;101718.00;;;;5052879;28;20457;-73
2022/06/11 06:20:18;;;;;;;3.17;1.15;;;22.90;52.80;21.80;101723.00;;;;5045064;28;20519;-73
2022/06/11 06:23:05;;;;;;;4.80;1.57;;;22.90;52.70;21.80;101717.00;;;;5033999;28;20048;-73
2022/06/11 06:25:51;;;;;;;2.95;1.30;;;22.80;52.70;21.80;101727.00;;;;5040093;28;20051;-73
2022/06/11 06:28:37;;;;;;;3.67;1.75;;;22.90;52.70;21.80;101724.00;;;;5042380;28;20445;-73
2022/06/11 06:31:23;;;;;;;3.08;1.40;;;22.80;52.70;21.80;101738.00;;;;5028379;28;20033;-74
2022/06/11 06:34:09;;;;;;;4.78;1.50;;;22.80;52.80;21.80;101735.00;;;;5052400;28;20496;-74
2022/06/11 06:36:55;;;;;;;3.15;1.55;;;22.80;52.50;21.80;101733.00;;;;5026186;28;20482;-73
2022/06/11 06:39:41;;;;;;;8.45;1.65;;;22.90;52.30;21.80;101738.00;;;;5040884;28;20051;-73
2022/06/11 06:42:27;;;;;;;4.35;1.25;;;22.90;52.20;21.80;101734.00;;;;5048518;28;20067;-73
2022/06/11 06:45:15;;;;;;;5.22;1.23;;;22.80;52.10;21.80;101742.00;;;;5044972;28;20053;-73
2022/06/11 06:48:02;;;;;;;3.35;1.42;;;22.80;52.30;21.80;101744.00;;;;5049061;28;20048;-73
2022/06/11 06:50:48;;;;;;;5.40;1.65;;;22.90;52.10;21.80;101749.00;;;;5038492;28;20033;-73
2022/06/11 06:53:36;;;;;;;5.18;1.42;;;22.80;52.00;21.80;101748.00;;;;5045880;28;20410;-73
2022/06/11 06:56:26;;;;;;;5.32;1.75;;;22.80;52.00;21.80;101745.00;;;;5019813;28;20048;-74
2022/06/11 06:59:12;;;;;;;4.45;1.77;;;22.90;51.80;21.80;101746.00;;;;5041823;28;20041;-72
2022/06/11 07:01:58;;;;;;;3.58;1.38;;;22.80;51.70;21.80;101749.00;;;;5063568;28;20044;-72
2022/06/11 07:04:44;;;;;;;1.77;1.40;;;22.80;51.70;21.80;101751.00;;;;5033240;28;20085;-72
2022/06/11 07:07:31;;;;;;;5.88;1.17;;;22.80;51.90;21.80;101754.00;;;;5042100;28;20150;-72
2022/06/11 07:10:18;;;;;;;3.92;1.13;;;22.80;51.60;21.80;101748.00;;;;5040061;28;20040;-72
2022/06/11 07:13:04;;;;;;;5.93;1.58;;;22.90;51.60;21.80;101761.00;;;;5035392;28;20040;-73
2022/06/11 07:15:52;;;;;;;5.97;1.70;;;22.90;51.50;21.80;101767.00;;;;5036572;28;20037;-72
2022/06/11 07:18:46;;;;;;;3.33;1.20;;;22.80;51.30;21.80;101761.00;;;;5073008;28;20177;-72
2022/06/11 07:21:36;;;;;;;3.10;1.10;;;22.90;51.30;21.80;101766.00;;;;5045754;28;20037;-72
2022/06/11 07:24:26;;;;;;;6.13;1.75;;;22.80;51.30;21.80;101767.00;;;;5030245;28;20036;-72
2022/06/11 07:27:19;;;;;;;5.63;1.77;;;22.90;51.30;21.80;101770.00;;;;5046631;28;20040;-72
2022/06/11 07:30:16;;;;;;;4.00;1.48;;;22.90;51.10;21.80;101758.00;;;;5043525;28;20033;-72
2022/06/11 07:33:09;;;;;;;5.22;1.25;;;22.90;51.20;21.80;101772.00;;;;5063493;28;20032;-72
2022/06/11 07:35:55;;;;;;;3.92;1.42;;;22.90;51.30;21.80;101766.00;;;;5051409;28;20060;-72
2022/06/11 07:38:41;;;;;;;5.03;1.63;;;22.90;51.20;21.90;101757.00;;;;5034040;28;20036;-72
2022/06/11 07:41:27;;;;;;;3.10;1.17;;;22.90;51.20;21.90;101756.00;;;;5054765;28;20090;-72
2022/06/11 07:44:13;;;;;;;3.38;1.30;;;22.90;51.10;21.90;101757.00;;;;5042395;28;20037;-74
2022/06/11 07:46:59;;;;;;;4.00;1.60;;;22.90;51.10;21.90;101766.00;;;;5043880;28;20091;-72
2022/06/11 07:49:45;;;;;;;3.40;1.25;;;22.90;51.20;21.90;101766.00;;;;5058914;28;20070;-73
2022/06/11 07:52:31;;;;;;;5.28;1.50;;;22.90;50.90;21.90;101753.00;;;;5038628;28;20029;-72
2022/06/11 07:55:18;;;;;;;5.45;1.52;;;22.90;50.90;21.90;101764.00;;;;5066668;28;20063;-72
2022/06/11 07:58:05;;;;;;;4.03;1.20;;;22.90;50.80;21.90;101766.00;;;;5068053;28;20044;-72
2022/06/11 08:00:53;;;;;;;4.78;1.23;;;22.90;51.00;21.90;101766.00;;;;5042062;28;20045;-72
2022/06/11 08:03:39;;;;;;;5.13;1.50;;;22.90;51.00;21.90;101770.00;;;;5059926;28;20040;-72
2022/06/11 08:06:25;;;;;;;3.70;1.10;;;22.90;50.90;21.90;101770.00;;;;5057257;28;20121;-72
2022/06/11 08:09:11;;;;;;;4.55;1.20;;;22.90;51.10;21.90;101766.00;;;;5060142;28;20098;-74
2022/06/11 08:12:41;;;;;;;5.13;1.40;;;22.90;51.10;21.90;101765.00;;;;5059624;28;20405;-74
2022/06/11 08:15:27;;;;;;;3.28;0.93;;;22.90;51.00;21.90;101771.00;;;;5021742;28;20088;-73
2022/06/11 08:18:14;;;;;;;2.95;1.15;;;23.00;51.40;21.90;101774.00;;;;5027142;28;20255;-73
2022/06/11 08:21:00;;;;;;;3.17;1.10;;;23.00;51.20;21.90;101775.00;;;;5026527;28;20215;-74
2022/06/11 08:23:46;;;;;;;5.57;1.33;;;23.00;51.00;21.90;101773.00;;;;5054727;28;20056;-74
2022/06/11 08:26:32;;;;;;;3.53;1.10;;;23.00;50.90;21.90;101775.00;;;;5040454;28;20045;-74
2022/06/11 08:29:18;;;;;;;5.35;1.48;;;23.00;51.00;21.90;101770.00;;;;5043187;28;20048;-74
2022/06/11 08:32:05;;;;;;;4.78;1.27;;;23.00;51.00;21.90;101778.00;;;;5045253;28;20106;-74
2022/06/11 08:34:52;;;;;;;3.22;1.10;;;23.00;51.00;21.90;101767.00;;;;5051559;28;20038;-74
2022/06/11 08:37:38;;;;;;;7.85;2.05;;;23.00;50.90;21.90;101770.00;;;;5057303;28;20136;-74
2022/06/11 08:40:45;;;;;;;6.55;1.33;;;23.00;50.80;21.90;101770.00;;;;5045823;28;20045;-73
2022/06/11 08:43:38;;;;;;;4.07;1.23;;;23.00;50.60;21.90;101776.00;;;;5043047;28;20068;-74
2022/06/11 08:46:27;;;;;;;4.45;1.10;;;23.00;50.80;21.90;101776.00;;;;5055903;28;20157;-73
2022/06/11 08:49:17;;;;;;;4.55;1.30;;;23.00;50.90;21.90;101782.00;;;;5046983;28;20482;-74
2022/06/11 08:52:13;;;;;;;4.95;1.38;;;23.00;50.70;22.00;101780.00;;;;5029527;28;20036;-73
2022/06/11 08:55:00;;;;;;;3.65;1.17;;;23.00;50.60;22.00;101775.00;;;;5045378;28;20036;-73
2022/06/11 08:57:57;;;;;;;4.32;1.13;;;23.00;50.60;21.90;101777.00;;;;5060579;28;20044;-73
2022/06/11 09:01:21;;;;;;;4.82;1.30;;;23.10;50.90;21.90;101770.00;;;;5041045;28;20049;-74
2022/06/11 09:04:57;;;;;;;4.05;1.35;;;23.10;50.40;21.90;101768.00;;;;5043044;28;20142;-74
2022/06/11 09:08:34;;;;;;;5.95;1.55;;;23.10;50.20;21.90;101782.00;;;;5047625;28;20094;-75
2022/06/11 09:12:00;;;;;;;3.97;1.17;;;23.00;50.00;21.90;101765.00;;;;5041187;28;20543;-74
2022/06/11 09:15:11;;;;;;;4.72;1.27;;;23.10;50.10;21.90;101780.00;;;;5044205;28;20122;-73
2022/06/11 09:18:10;;;;;;;5.25;1.48;;;23.00;49.80;21.90;101778.00;;;;5038812;28;20482;-73
2022/06/11 09:21:18;;;;;;;4.68;1.30;;;23.00;49.70;21.90;101784.00;;;;5042883;28;20041;-73
2022/06/11 09:24:48;;;;;;;9.45;5.35;;;23.00;49.80;21.90;101778.00;;;;5052034;28;20037;-73
2022/06/11 09:27:40;;;;;;;7.05;3.33;;;23.00;49.90;22.00;101775.00;;;;5063431;28;20421;-73
2022/06/11 09:30:46;;;;;;;8.20;2.90;;;23.00;50.10;21.90;101780.00;;;;5040014;28;20053;-74
2022/06/11 09:33:40;;;;;;;5.95;2.10;;;23.00;50.20;21.90;101781.00;;;;5039636;28;20036;-74
2022/06/11 09:36:33;;;;;;;5.30;2.10;;;23.00;50.10;22.00;101776.00;;;;5027206;28;20047;-73
2022/06/11 09:39:42;;;;;;;4.88;1.77;;;23.10;50.50;22.00;101783.00;;;;5041055;28;20168;-73
2022/06/11 09:43:08;;;;;;;4.22;1.75;;;23.10;50.10;22.00;101781.00;;;;5055907;28;20036;-73
2022/06/11 09:46:16;;;;;;;5.15;1.83;;;23.10;50.10;22.00;101786.00;;;;5042235;28;20121;-73
2022/06/11 09:50:02;;;;;;;3.97;2.00;;;23.10;50.00;22.00;101774.00;;;;5053868;28;20052;-73
2022/06/11 09:52:57;;;;;;;5.03;1.95;;;23.10;50.20;22.00;101777.00;;;;5023842;28;20041;-73
2022/06/11 09:56:00;;;;;;;4.53;1.90;;;23.10;50.40;22.00;101782.00;;;;5037132;28;20049;-73
2022/06/11 09:59:23;;;;;;;10.35;2.13;;;23.10;50.20;22.00;101773.00;;;;5036442;28;20529;-73
2022/06/11 10:02:30;;;;;;;5.80;1.85;;;23.10;50.00;22.00;101790.00;;;;5042180;28;20045;-73
2022/06/11 10:05:22;;;;;;;5.15;2.10;;;23.10;50.10;22.00;101781.00;;;;5042381;28;20045;-73
2022/06/11 10:08:38;;;;;;;5.70;1.80;;;23.20;50.10;22.00;101788.00;;;;5041835;28;20159;-73
2022/06/11 10:11:53;;;;;;;6.50;1.60;;;23.10;49.90;22.00;101803.00;;;;5044612;28;20040;-73
2022/06/11 10:15:00;;;;;;;6.53;1.63;;;23.10;49.80;22.00;101788.00;;;;5038093;28;20099;-73
2022/06/11 10:18:12;;;;;;;4.30;1.50;;;23.10;49.70;22.00;101798.00;;;;5040074;28;20037;-73
2022/06/11 10:21:12;;;;;;;6.47;1.63;;;23.10;49.80;22.00;101802.00;;;;5039804;28;20032;-72
2022/06/11 10:24:04;;;;;;;6.00;1.80;;;23.20;49.70;22.00;101787.00;;;;5040932;28;20041;-72
2022/06/11 10:27:01;;;;;;;4.72;1.50;;;23.20;49.60;22.10;101792.00;;;;5049123;28;20398;-72
2022/06/11 10:29:53;;;;;;;3.17;1.50;;;23.20;49.50;22.10;101793.00;;;;5025131;28;20036;-73
2022/06/11 10:32:42;;;;;;;3.90;1.60;;;23.20;49.60;22.10;101789.00;;;;5051664;28;20047;-73
2022/06/11 10:35:39;;;;;;;5.05;1.85;;;23.10;49.50;22.10;101795.00;;;;5039748;28;20499;-73
2022/06/11 10:39:06;;;;;;;7.43;2.53;;;23.20;49.50;22.10;101789.00;;;;5021110;28;20049;-73
2022/06/11 10:42:04;;;;;;;4.97;2.05;;;23.20;49.60;22.10;101797.00;;;;5052862;28;20604;-73
2022/06/11 10:44:54;;;;;;;4.00;1.25;;;23.20;49.50;22.10;101792.00;;;;5038576;28;20131;-73
2022/06/11 10:47:45;;;;;;;6.18;1.80;;;23.20;49.60;22.10;101800.00;;;;5034334;28;20044;-72
2022/06/11 10:50:35;;;;;;;4.85;2.30;;;23.20;49.50;22.10;101784.00;;;;5030236;28;20037;-72
2022/06/11 10:53:34;;;;;;;8.60;2.13;;;23.20;49.50;22.10;101796.00;;;;5044003;28;20517;-72
2022/06/11 10:56:35;;;;;;;7.00;2.35;;;23.20;49.50;22.10;101796.00;;;;5055188;28;20935;-73
2022/06/11 10:59:33;;;;;;;5.55;2.05;;;23.20;49.40;22.10;101798.00;;;;5025720;28;20463;-72
2022/06/11 11:02:31;;;;;;;6.32;2.67;;;23.30;49.40;22.10;101790.00;;;;5054855;28;20053;-72
2022/06/11 11:05:18;;;;;;;5.13;1.52;;;23.20;49.60;22.10;101786.00;;;;5041617;28;20048;-72
2022/06/11 11:08:05;;;;;;;5.05;1.58;;;23.20;50.10;22.20;101780.00;;;;5045587;28;20033;-72
2022/06/11 11:10:55;;;;;;;5.30;1.60;;;23.30;49.50;22.20;101793.00;;;;5044409;28;20041;-72
2022/06/11 11:13:42;;;;;;;2.97;1.20;;;23.30;49.40;22.20;101787.00;;;;5047787;28;20036;-72
2022/06/11 11:16:30;;;;;;;3.28;1.30;;;23.40;49.50;22.20;101786.00;;;;5046421;28;20048;-72
2022/06/11 11:19:22;;;;;;;4.50;1.55;;;23.30;49.40;22.20;101776.00;;;;5041114;28;20042;-72
2022/06/11 11:22:18;;;;;;;8.05;1.35;;;23.30;49.50;22.20;101779.00;;;;5042279;28;20123;-72
2022/06/11 11:25:11;;;;;;;4.60;1.60;;;23.30;49.80;22.20;101778.00;;;;5042910;28;20489;-72
2022/06/11 11:27:57;;;;;;;5.10;1.30;;;23.30;49.60;22.20;101778.00;;;;5033112;28;20494;-73
2022/06/11 11:30:43;;;;;;;5.22;1.27;;;23.30;50.40;22.20;101786.00;;;;5041786;28;20049;-72
2022/06/11 11:33:33;;;;;;;5.20;1.33;;;23.40;49.80;22.20;101784.00;;;;5047141;28;20499;-72
2022/06/11 11:36:25;;;;;;;4.75;1.63;;;23.40;49.80;22.20;101793.00;;;;5048725;28;20047;-73
2022/06/11 11:39:21;;;;;;;7.40;1.55;;;23.40;49.80;22.20;101789.00;;;;5048924;28;20048;-72
2022/06/11 11:42:07;;;;;;;5.65;1.48;;;23.40;49.80;22.20;101798.00;;;;5059314;28;20049;-72
2022/06/11 11:44:57;;;;;;;8.38;1.70;;;23.40;49.90;22.20;101794.00;;;;5043758;28;20036;-72
2022/06/11 11:47:43;;;;;;;5.35;1.30;;;23.40;50.00;22.30;101786.00;;;;5059187;28;20068;-72
2022/06/11 11:50:35;;;;;;;4.28;1.33;;;23.40;49.90;22.30;101790.00;;;;5055964;28;20043;-72
2022/06/11 11:53:26;;;;;;;6.55;1.92;;;23.40;49.80;22.30;101789.00;;;;5029950;28;20051;-72
2022/06/11 11:56:28;;;;;;;3.58;1.52;;;23.40;49.90;22.30;101792.00;;;;5025668;28;20036;-73
2022/06/11 11:59:45;;;;;;;4.93;1.48;;;23.40;49.70;22.30;101782.00;;;;5045022;28;20052;-73
2022/06/11 12:02:45;;;;;;;6.60;1.10;;;23.40;49.90;22.30;101792.00;;;;5032544;28;20053;-73
2022/06/11 12:05:38;;;;;;;3.85;0.95;;;23.40;49.80;22.30;101789.00;;;;5045278;28;20490;-73
2022/06/11 12:08:34;;;;;;;12.07;1.63;;;23.40;49.70;22.30;101793.00;;;;5044419;28;20151;-73
2022/06/11 12:11:23;;;;;;;4.82;1.40;;;23.50;49.70;22.30;101782.00;;;;5056720;28;20037;-73
2022/06/11 12:14:15;;;;;;;5.68;1.33;;;23.50;49.80;22.30;101779.00;;;;5047939;28;20045;-73
2022/06/11 12:17:28;;;;;;;3.83;1.23;;;23.50;49.90;22.30;101785.00;;;;5047221;28;20397;-72
2022/06/11 12:20:30;;;;;;;4.78;1.20;;;23.50;49.90;22.30;101786.00;;;;5058859;28;20044;-73
2022/06/11 12:23:34;;;;;;;8.90;1.70;;;23.50;50.00;22.30;101786.00;;;;5042941;28;20142;-72
2022/06/11 12:26:29;;;;;;;5.47;1.38;;;23.50;50.10;22.30;101786.00;;;;5042159;28;20194;-72
2022/06/11 12:29:43;;;;;;;6.07;1.50;;;23.50;50.00;22.30;101788.00;;;;5019093;28;20254;-73
2022/06/11 12:32:30;;;;;;;5.25;1.50;;;23.50;50.10;22.30;101783.00;;;;5057174;28;20040;-72
2022/06/11 12:35:39;;;;;;;7.07;1.40;;;23.50;50.00;22.30;101788.00;;;;5045574;28;20041;-72
2022/06/11 12:38:32;;;;;;;12.80;1.50;;;23.50;50.10;22.30;101780.00;;;;5050911;28;20037;-72
2022/06/11 12:41:37;;;;;;;7.85;1.52;;;23.50;50.00;22.30;101782.00;;;;5046029;28;20071;-72
2022/06/11 12:44:43;;;;;;;6.47;1.40;;;23.50;50.00;22.40;101788.00;;;;5060930;28;20037;-72
2022/06/11 12:48:29;;;;;;;5.82;1.88;;;23.50;50.10;22.30;101785.00;;;;5052258;28;20041;-72